Time,TemperatureF,DewpointF,PressureIn,WindDirection,WindDirectionDegrees,WindSpeedMPH,WindSpeedGustMPH,Humidity,HourlyPrecipIn,Conditions,Clouds,dailyrainin,SoftwareType,DateUTC
2013-04-25 00:03:00,58.0,51.0,29.64,WSW,254,6.0,15.0,77,0.00,,,0.01,,2013-04-25 04:03:00,
2013-04-25 00:13:00,58.0,51.0,29.64,WSW,254,6.0,15.0,77,0.00,,,0.01,,2013-04-25 04:13:00,
2013-04-25 00:23:00,62.0,51.0,29.63,SSE,150,3.0,12.0,66,0.00,,,0.01,,2013-04-25 04:23:00,
2013-04-25 00:33:00,64.0,51.0,29.63,SSW,206,6.0,12.0,63,0.00,,,0.01,,2013-04-25 04:33:00,
2013-04-25 00:43:00,64.0,51.0,29.63,SSW,206,6.0,12.0,63,0.00,,,0.01,,2013-04-25 04:43:00,
2013-04-25 00:52:00,65.0,51.0,29.62,East,99,4.0,13.0,61,0.00,,,0.01,,2013-04-25 04:52:00,
2013-04-25 01:02:00,64.0,54.0,29.67,SSW,213,5.0,19.0,69,0.02,,,0.02,,2013-04-25 05:02:00,
2013-04-25 01:12:00,64.0,54.0,29.67,SSW,213,5.0,19.0,69,0.02,,,0.02,,2013-04-25 05:12:00,
2013-04-25 01:22:00,59.0,51.0,29.69,SW,215,6.0,20.0,74,0.03,,,0.03,,2013-04-25 05:22:00,
2013-04-25 01:32:00,58.0,51.0,29.67,SSE,161,0.0,7.0,78,0.04,,,0.04,,2013-04-25 05:32:00,
2013-04-25 01:42:00,58.0,51.0,29.67,SSE,161,0.0,7.0,78,0.04,,,0.04,,2013-04-25 05:42:00,
2013-04-25 01:52:00,57.0,51.0,29.69,SSE,149,9.0,15.0,79,0.04,,,0.04,,2013-04-25 05:52:00,
2013-04-25 02:02:00,57.0,49.0,29.70,SSW,196,6.0,12.0,75,0.02,,,0.04,,2013-04-25 06:02:00,
2013-04-25 02:12:00,57.0,49.0,29.70,SSW,196,6.0,12.0,75,0.02,,,0.04,,2013-04-25 06:12:00,
2013-04-25 02:22:00,57.0,47.0,29.71,WSW,240,8.0,12.0,69,0.01,,,0.04,,2013-04-25 06:22:00,
2013-04-25 02:32:00,56.0,44.0,29.73,South,183,12.0,23.0,63,0.01,,,0.04,,2013-04-25 06:32:00,
2013-04-25 02:42:00,56.0,44.0,29.73,South,183,12.0,23.0,63,0.01,,,0.04,,2013-04-25 06:42:00,
2013-04-25 02:52:00,55.0,42.0,29.76,WSW,243,1.0,20.0,62,0.00,,,0.04,,2013-04-25 06:52:00,
2013-04-25 03:02:00,52.0,38.0,29.80,WSW,253,5.0,25.0,59,0.00,,,0.04,,2013-04-25 07:02:00,
2013-04-25 03:12:00,50.0,38.0,29.81,SW,219,2.0,9.0,62,0.00,,,0.04,,2013-04-25 07:12:00,
2013-04-25 03:22:00,50.0,38.0,29.81,SW,219,2.0,9.0,62,0.00,,,0.04,,2013-04-25 07:22:00,
2013-04-25 03:32:00,49.0,37.0,29.83,West,259,6.0,13.0,63,0.00,,,0.04,,2013-04-25 07:32:00,
2013-04-25 03:42:00,49.0,37.0,29.83,West,259,6.0,13.0,63,0.00,,,0.04,,2013-04-25 07:42:00,
2013-04-25 03:52:00,48.0,37.0,29.84,WNW,291,7.0,12.0,65,0.00,,,0.04,,2013-04-25 07:52:00,
2013-04-25 04:02:00,47.0,36.0,29.86,SSW,210,10.0,18.0,65,0.00,,,0.04,,2013-04-25 08:02:00,
2013-04-25 04:11:00,47.0,36.0,29.86,SSW,210,10.0,18.0,65,0.00,,,0.04,,2013-04-25 08:11:00,
2013-04-25 04:21:00,46.0,35.0,29.88,SSW,202,3.0,10.0,66,0.00,,,0.04,,2013-04-25 08:21:00,
2013-04-25 04:32:00,46.0,36.0,29.89,SSW,212,3.0,9.0,67,0.00,,,0.04,,2013-04-25 08:32:00,
2013-04-25 04:42:00,46.0,36.0,29.89,SSW,212,3.0,9.0,67,0.00,,,0.04,,2013-04-25 08:42:00,
2013-04-25 04:52:00,45.0,35.0,29.90,SSW,202,4.0,7.0,67,0.00,,,0.04,,2013-04-25 08:52:00,
2013-04-25 05:01:00,45.0,35.0,29.91,South,173,1.0,10.0,67,0.00,,,0.04,,2013-04-25 09:01:00,
2013-04-25 05:11:00,45.0,35.0,29.91,South,173,1.0,10.0,67,0.00,,,0.04,,2013-04-25 09:11:00,
2013-04-25 05:21:00,44.0,34.0,29.92,SW,232,3.0,11.0,67,0.00,,,0.04,,2013-04-25 09:21:00,
2013-04-25 05:33:00,44.0,34.0,29.94,SSW,209,1.0,5.0,68,0.00,,,0.04,,2013-04-25 09:33:00,
2013-04-25 05:42:00,44.0,34.0,29.94,SSW,209,1.0,5.0,68,0.00,,,0.04,,2013-04-25 09:42:00,
2013-04-25 05:53:00,43.0,33.0,29.95,SSW,209,4.0,9.0,68,0.00,,,0.04,,2013-04-25 09:53:00,
2013-04-25 06:02:00,43.0,33.0,29.96,North,10,1.0,6.0,68,0.00,,,0.00,,2013-04-25 10:02:00,
2013-04-25 06:12:00,43.0,33.0,29.96,North,10,1.0,6.0,68,0.00,,,0.00,,2013-04-25 10:12:00,
2013-04-25 06:22:00,43.0,34.0,29.97,South,173,1.0,7.0,69,0.00,,,0.00,,2013-04-25 10:22:00,
2013-04-25 06:32:00,42.0,32.0,29.98,SSW,197,2.0,6.0,68,0.00,,,0.00,,2013-04-25 10:32:00,
2013-04-25 06:42:00,42.0,32.0,29.98,SSW,197,2.0,6.0,68,0.00,,,0.00,,2013-04-25 10:42:00,
2013-04-25 06:53:00,42.0,33.0,29.99,NW,314,0.0,6.0,69,0.00,,,0.00,,2013-04-25 10:53:00,
2013-04-25 07:02:00,42.0,33.0,30.01,North,355,2.0,7.0,69,0.00,,,0.00,,2013-04-25 11:02:00,
2013-04-25 07:12:00,42.0,33.0,30.01,North,355,2.0,7.0,69,0.00,,,0.00,,2013-04-25 11:12:00,
2013-04-25 07:22:00,42.0,33.0,30.03,NW,317,2.0,7.0,69,0.00,,,0.00,,2013-04-25 11:22:00,
2013-04-25 07:32:00,42.0,32.0,30.04,NW,310,7.0,14.0,67,0.00,,,0.00,,2013-04-25 11:32:00,
2013-04-25 07:42:00,42.0,32.0,30.04,NW,310,7.0,14.0,67,0.00,,,0.00,,2013-04-25 11:42:00,
2013-04-25 07:52:00,42.0,32.0,30.05,WSW,258,4.0,7.0,67,0.00,,,0.00,,2013-04-25 11:52:00,
2013-04-25 08:01:00,42.0,31.0,30.05,WSW,237,0.0,9.0,66,0.00,,,0.00,,2013-04-25 12:01:00,
2013-04-25 08:12:00,42.0,31.0,30.05,WSW,237,0.0,9.0,66,0.00,,,0.00,,2013-04-25 12:12:00,
2013-04-25 08:21:00,43.0,32.0,30.06,NNW,338,1.0,8.0,64,0.00,,,0.00,,2013-04-25 12:21:00,
2013-04-25 08:32:00,44.0,31.0,30.06,NNW,327,4.0,12.0,61,0.00,,,0.00,,2013-04-25 12:32:00,
2013-04-25 08:42:00,44.0,31.0,30.06,NNW,327,4.0,12.0,61,0.00,,,0.00,,2013-04-25 12:42:00,
2013-04-25 08:52:00,43.0,31.0,30.06,North,9,4.0,12.0,63,0.00,,,0.00,,2013-04-25 12:52:00,
2013-04-25 09:02:00,43.0,31.0,30.06,NW,313,2.0,12.0,63,0.00,,,0.00,,2013-04-25 13:02:00,
2013-04-25 09:11:00,43.0,31.0,30.06,NW,313,2.0,12.0,63,0.00,,,0.00,,2013-04-25 13:11:00,
2013-04-25 09:21:00,44.0,31.0,30.07,NE,56,5.0,15.0,60,0.00,,,0.00,,2013-04-25 13:21:00,
2013-04-25 09:32:00,45.0,31.0,30.07,NW,313,7.0,16.0,58,0.00,,,0.00,,2013-04-25 13:32:00,
2013-04-25 09:42:00,45.0,31.0,30.07,NW,313,7.0,16.0,58,0.00,,,0.00,,2013-04-25 13:42:00,
2013-04-25 09:53:00,45.0,32.0,30.08,NNE,15,5.0,14.0,60,0.00,,,0.00,,2013-04-25 13:53:00,
2013-04-25 10:02:00,46.0,32.0,30.09,NNE,15,6.0,11.0,58,0.00,,,0.00,,2013-04-25 14:02:00,
2013-04-25 10:11:00,46.0,32.0,30.09,NNE,15,6.0,11.0,58,0.00,,,0.00,,2013-04-25 14:11:00,
2013-04-25 10:21:00,45.0,32.0,30.10,NW,309,2.0,15.0,60,0.00,,,0.00,,2013-04-25 14:21:00,
2013-04-25 10:32:00,46.0,32.0,30.11,WNW,295,7.0,12.0,57,0.00,,,0.00,,2013-04-25 14:32:00,
2013-04-25 10:42:00,46.0,32.0,30.11,WNW,295,7.0,12.0,57,0.00,,,0.00,,2013-04-25 14:42:00,
2013-04-25 10:52:00,47.0,32.0,30.12,NW,308,9.0,13.0,56,0.00,,,0.00,,2013-04-25 14:52:00,
2013-04-25 11:02:00,46.0,31.0,30.12,North,5,4.0,11.0,56,0.00,,,0.00,,2013-04-25 15:02:00,
2013-04-25 11:11:00,46.0,31.0,30.12,North,5,4.0,11.0,56,0.00,,,0.00,,2013-04-25 15:11:00,
2013-04-25 11:21:00,45.0,30.0,30.12,NNW,333,3.0,16.0,56,0.00,,,0.00,,2013-04-25 15:21:00,
2013-04-25 11:33:00,45.0,30.0,30.14,NNW,346,5.0,16.0,56,0.00,,,0.00,,2013-04-25 15:33:00,
2013-04-25 11:42:00,45.0,30.0,30.14,NNW,346,5.0,16.0,56,0.00,,,0.00,,2013-04-25 15:42:00,
2013-04-25 11:53:00,46.0,31.0,30.14,North,355,7.0,14.0,56,0.00,,,0.00,,2013-04-25 15:53:00,
2013-04-25 12:02:00,46.0,30.0,30.14,NW,320,4.0,13.0,53,0.00,,,0.00,,2013-04-25 16:02:00,
2013-04-25 12:13:00,46.0,30.0,30.14,NW,320,4.0,13.0,53,0.00,,,0.00,,2013-04-25 16:13:00,
2013-04-25 12:24:00,46.0,31.0,30.15,NE,36,3.0,13.0,55,0.00,,,0.00,,2013-04-25 16:24:00,
2013-04-25 12:32:00,46.0,30.0,30.15,NNE,14,1.0,15.0,54,0.00,,,0.00,,2013-04-25 16:32:00,
2013-04-25 12:43:00,46.0,30.0,30.15,NNE,14,1.0,15.0,54,0.00,,,0.00,,2013-04-25 16:43:00,
2013-04-25 12:53:00,47.0,30.0,30.15,WNW,292,7.0,14.0,51,0.00,,,0.00,,2013-04-25 16:53:00,
2013-04-25 13:02:00,48.0,30.0,30.15,WNW,300,3.0,14.0,50,0.00,,,0.00,,2013-04-25 17:02:00,
2013-04-25 13:11:00,48.0,30.0,30.15,WNW,300,3.0,14.0,50,0.00,,,0.00,,2013-04-25 17:11:00,
2013-04-25 13:22:00,49.0,30.0,30.15,NNW,337,9.0,15.0,47,0.00,,,0.00,,2013-04-25 17:22:00,
2013-04-25 13:32:00,48.0,29.0,30.15,North,349,6.0,12.0,48,0.00,,,0.00,,2013-04-25 17:32:00,
2013-04-25 13:42:00,48.0,29.0,30.15,North,349,6.0,12.0,48,0.00,,,0.00,,2013-04-25 17:42:00,
2013-04-25 13:53:00,49.0,29.0,30.15,NNW,327,3.0,15.0,46,0.00,,,0.00,,2013-04-25 17:53:00,
2013-04-25 14:01:00,50.0,30.0,30.15,NW,311,7.0,10.0,46,0.00,,,0.00,,2013-04-25 18:01:00,
2013-04-25 14:11:00,50.0,30.0,30.15,NW,311,7.0,10.0,46,0.00,,,0.00,,2013-04-25 18:11:00,
2013-04-25 14:22:00,51.0,29.0,30.14,NNE,14,3.0,10.0,43,0.00,,,0.00,,2013-04-25 18:22:00,
2013-04-25 14:32:00,51.0,29.0,30.14,SSE,148,4.0,16.0,42,0.00,,,0.00,,2013-04-25 18:32:00,
2013-04-25 14:42:00,51.0,29.0,30.14,SSE,148,4.0,16.0,42,0.00,,,0.00,,2013-04-25 18:42:00,
2013-04-25 14:53:00,53.0,29.0,30.15,NW,313,7.0,16.0,39,0.00,,,0.00,,2013-04-25 18:53:00,
2013-04-25 15:01:00,53.0,29.0,30.15,NNE,27,8.0,15.0,39,0.00,,,0.00,,2013-04-25 19:01:00,
2013-04-25 15:12:00,53.0,29.0,30.15,NNE,27,8.0,15.0,39,0.00,,,0.00,,2013-04-25 19:12:00,
2013-04-25 15:21:00,53.0,29.0,30.14,NNE,32,5.0,14.0,39,0.00,,,0.00,,2013-04-25 19:21:00,
2013-04-25 15:32:00,54.0,27.0,30.15,WSW,237,6.0,14.0,35,0.00,,,0.00,,2013-04-25 19:32:00,
2013-04-25 15:42:00,54.0,27.0,30.15,WSW,237,6.0,14.0,35,0.00,,,0.00,,2013-04-25 19:42:00,
2013-04-25 15:52:00,54.0,25.0,30.15,NNW,330,9.0,22.0,32,0.00,,,0.00,,2013-04-25 19:52:00,
2013-04-25 16:02:00,54.0,26.0,30.15,North,350,9.0,15.0,34,0.00,,,0.00,,2013-04-25 20:02:00,
2013-04-25 16:11:00,54.0,26.0,30.15,North,350,9.0,15.0,34,0.00,,,0.00,,2013-04-25 20:11:00,
2013-04-25 16:22:00,54.0,28.0,30.15,WNW,284,4.0,11.0,36,0.00,,,0.00,,2013-04-25 20:22:00,
2013-04-25 16:32:00,54.0,26.0,30.15,NE,41,5.0,14.0,34,0.00,,,0.00,,2013-04-25 20:32:00,
2013-04-25 16:42:00,54.0,26.0,30.15,NE,41,5.0,14.0,34,0.00,,,0.00,,2013-04-25 20:42:00,
2013-04-25 16:52:00,53.0,25.0,30.15,NW,319,5.0,16.0,34,0.00,,,0.00,,2013-04-25 20:52:00,
2013-04-25 17:01:00,54.0,26.0,30.15,WNW,286,1.0,11.0,34,0.00,,,0.00,,2013-04-25 21:01:00,
2013-04-25 17:11:00,54.0,26.0,30.15,WNW,286,1.0,11.0,34,0.00,,,0.00,,2013-04-25 21:11:00,
2013-04-25 17:22:00,54.0,26.0,30.16,NNE,29,7.0,12.0,33,0.00,,,0.00,,2013-04-25 21:22:00,
2013-04-25 17:33:00,54.0,27.0,30.16,West,277,8.0,13.0,35,0.00,,,0.00,,2013-04-25 21:33:00,
2013-04-25 17:42:00,54.0,27.0,30.16,West,277,8.0,13.0,35,0.00,,,0.00,,2013-04-25 21:42:00,
2013-04-25 17:53:00,54.0,26.0,30.16,NW,317,7.0,10.0,34,0.00,,,0.00,,2013-04-25 21:53:00,
2013-04-25 18:03:00,54.0,26.0,30.17,WNW,288,4.0,6.0,34,0.00,,,0.00,,2013-04-25 22:03:00,
2013-04-25 18:12:00,54.0,26.0,30.17,WNW,288,4.0,6.0,34,0.00,,,0.00,,2013-04-25 22:12:00,
2013-04-25 18:22:00,54.0,26.0,30.18,North,5,1.0,8.0,33,0.00,,,0.00,,2013-04-25 22:22:00,
2013-04-25 18:33:00,53.0,25.0,30.18,NNE,21,4.0,9.0,34,0.00,,,0.00,,2013-04-25 22:33:00,
2013-04-25 18:42:00,53.0,25.0,30.18,NNE,21,4.0,9.0,34,0.00,,,0.00,,2013-04-25 22:42:00,
2013-04-25 18:53:00,53.0,26.0,30.19,North,355,1.0,6.0,35,0.00,,,0.00,,2013-04-25 22:53:00,
2013-04-25 19:02:00,53.0,27.0,30.19,WNW,291,2.0,8.0,36,0.00,,,0.00,,2013-04-25 23:02:00,
2013-04-25 19:12:00,53.0,27.0,30.19,WNW,291,2.0,8.0,36,0.00,,,0.00,,2013-04-25 23:12:00,
2013-04-25 19:22:00,52.0,27.0,30.19,North,360,0.0,6.0,38,0.00,,,0.00,,2013-04-25 23:22:00,
2013-04-25 19:32:00,51.0,31.0,30.19,North,5,0.0,1.0,46,0.00,,,0.00,,2013-04-25 23:32:00,
2013-04-25 19:42:00,51.0,31.0,30.19,North,5,0.0,1.0,46,0.00,,,0.00,,2013-04-25 23:42:00,
2013-04-25 19:52:00,48.0,31.0,30.20,North,5,0.0,1.0,52,0.00,,,0.00,,2013-04-25 23:52:00,
2013-04-25 20:01:00,46.0,32.0,30.21,North,5,0.0,1.0,57,0.00,,,0.00,,2013-04-26 00:01:00,
2013-04-25 20:11:00,46.0,32.0,30.21,North,5,0.0,1.0,57,0.00,,,0.00,,2013-04-26 00:11:00,
2013-04-25 20:21:00,43.0,30.0,30.21,North,360,0.0,1.0,61,0.00,,,0.00,,2013-04-26 00:21:00,
2013-04-25 20:32:00,41.0,30.0,30.22,North,5,0.0,1.0,64,0.00,,,0.00,,2013-04-26 00:32:00,
2013-04-25 20:42:00,41.0,30.0,30.22,North,5,0.0,1.0,64,0.00,,,0.00,,2013-04-26 00:42:00,
2013-04-25 20:52:00,40.0,30.0,30.23,North,5,0.0,2.0,68,0.00,,,0.00,,2013-04-26 00:52:00,
2013-04-25 21:01:00,39.0,30.0,30.24,North,5,0.0,0.0,70,0.00,,,0.00,,2013-04-26 01:01:00,
2013-04-25 21:11:00,39.0,30.0,30.24,North,5,0.0,0.0,70,0.00,,,0.00,,2013-04-26 01:11:00,
2013-04-25 21:21:00,38.0,30.0,30.25,North,5,0.0,0.0,72,0.00,,,0.00,,2013-04-26 01:21:00,
2013-04-25 21:32:00,37.0,29.0,30.26,North,5,0.0,0.0,72,0.00,,,0.00,,2013-04-26 01:32:00,
2013-04-25 21:42:00,37.0,29.0,30.26,North,5,0.0,0.0,72,0.00,,,0.00,,2013-04-26 01:42:00,
2013-04-25 21:52:00,36.0,29.0,30.26,North,5,0.0,2.0,74,0.00,,,0.00,,2013-04-26 01:52:00,
2013-04-25 22:02:00,35.0,28.0,30.27,North,5,0.0,0.0,76,0.00,,,0.00,,2013-04-26 02:02:00,
2013-04-25 22:12:00,35.0,28.0,30.27,North,5,0.0,0.0,76,0.00,,,0.00,,2013-04-26 02:12:00,
2013-04-25 22:21:00,34.0,28.0,30.28,North,360,0.0,0.0,77,0.00,,,0.00,,2013-04-26 02:21:00,
2013-04-25 22:32:00,34.0,28.0,30.28,North,5,0.0,1.0,78,0.00,,,0.00,,2013-04-26 02:32:00,
2013-04-25 22:42:00,34.0,28.0,30.28,North,5,0.0,1.0,78,0.00,,,0.00,,2013-04-26 02:42:00,
2013-04-25 22:52:00,33.0,28.0,30.28,North,5,0.0,0.0,80,0.00,,,0.00,,2013-04-26 02:52:00,
2013-04-25 23:01:00,33.0,28.0,30.29,North,360,0.0,0.0,81,0.00,,,0.00,,2013-04-26 03:01:00,
2013-04-25 23:11:00,33.0,28.0,30.29,North,360,0.0,0.0,81,0.00,,,0.00,,2013-04-26 03:11:00,
2013-04-25 23:22:00,32.0,27.0,30.29,North,360,0.0,0.0,81,0.00,,,0.00,,2013-04-26 03:22:00,
2013-04-25 23:33:00,32.0,27.0,30.29,North,360,0.0,0.0,83,0.00,,,0.00,,2013-04-26 03:33:00,
2013-04-25 23:43:00,32.0,27.0,30.29,North,360,0.0,0.0,83,0.00,,,0.00,,2013-04-26 03:43:00,
2013-04-25 23:53:00,31.0,26.0,30.29,North,5,0.0,0.0,83,0.00,,,0.00,,2013-04-26 03:53:00,